Time;durP1;ratioP1;P1;durP2;ratioP2;P2;SDS_P1;SDS_P2;PMS_P1;PMS_P2;Temp;Humidity;BMP_temperature;BMP_pressure;BME280_temperature;BME280_humidity;BME280_pressure;Samples;Min_cycle;Max_cycle;Signal;HPM_P1;HPM_P2
2024/02/06 00:02:02;;;;;;;2.90;1.60;;;;;;;;;;5029145;28;20069;-65
2024/02/06 00:04:27;;;;;;;3.17;1.77;;;;;;;;;;5026437;28;20435;-64
2024/02/06 00:06:53;;;;;;;2.50;1.50;;;;;;;;;;5033082;28;20022;-64
2024/02/06 00:09:20;;;;;;;3.05;1.70;;;;;;;;;;5045857;28;20036;-64
2024/02/06 00:11:45;;;;;;;3.10;1.80;;;;;;;;;;5031911;28;20029;-65
2024/02/06 00:14:10;;;;;;;2.72;1.80;;;;;;;;;;5029857;28;20029;-65
2024/02/06 00:16:37;;;;;;;2.53;1.63;;;;;;;;;;5031101;28;20073;-65
2024/02/06 00:19:02;;;;;;;2.80;1.60;;;;;;;;;;5010718;28;20017;-64
2024/02/06 00:21:27;;;;;;;3.10;1.92;;;;;;;;;;5031006;28;20507;-66
2024/02/06 00:23:52;;;;;;;3.40;1.60;;;;;;;;;;5032184;28;20037;-65
2024/02/06 00:26:18;;;;;;;2.60;1.80;;;;;;;;;;5043867;28;20706;-64
2024/02/06 00:28:43;;;;;;;2.60;1.80;;;;;;;;;;5030808;28;20024;-65
2024/02/06 00:31:08;;;;;;;2.63;1.80;;;;;;;;;;5030259;28;20650;-64
2024/02/06 00:33:34;;;;;;;3.67;2.13;;;;;;;;;;5030869;28;20037;-65
2024/02/06 00:36:01;;;;;;;3.20;1.83;;;;;;;;;;5018183;28;20809;-64
2024/02/06 00:38:26;;;;;;;2.72;1.80;;;;;;;;;;5029060;28;20280;-63
2024/02/06 00:40:51;;;;;;;3.00;1.90;;;;;;;;;;5044277;28;20117;-64
2024/02/06 00:43:17;;;;;;;2.70;1.70;;;;;;;;;;5044860;28;20264;-63
2024/02/06 00:45:42;;;;;;;2.78;1.80;;;;;;;;;;5040009;28;20272;-65
2024/02/06 00:48:07;;;;;;;2.90;1.50;;;;;;;;;;5022858;28;20029;-65
2024/02/06 00:50:33;;;;;;;2.38;1.77;;;;;;;;;;5028844;28;20338;-65
2024/02/06 00:52:58;;;;;;;3.22;1.98;;;;;;;;;;5030082;28;20048;-63
2024/02/06 00:55:23;;;;;;;2.67;1.87;;;;;;;;;;5030647;28;20025;-64
2024/02/06 00:57:49;;;;;;;2.75;1.90;;;;;;;;;;5030292;28;20859;-64
2024/02/06 01:00:15;;;;;;;3.25;1.95;;;;;;;;;;5029042;28;20410;-64
2024/02/06 01:02:40;;;;;;;2.88;1.90;;;;;;;;;;5029862;28;20044;-64
2024/02/06 01:05:05;;;;;;;3.20;1.90;;;;;;;;;;5034139;28;20048;-64
2024/02/06 01:07:30;;;;;;;2.47;1.88;;;;;;;;;;5035403;28;20812;-65
2024/02/06 01:09:56;;;;;;;2.40;1.80;;;;;;;;;;5037335;28;20565;-63
2024/02/06 01:12:21;;;;;;;2.42;1.73;;;;;;;;;;5030205;28;20291;-62
2024/02/06 01:14:46;;;;;;;3.00;2.00;;;;;;;;;;5029527;28;20403;-64
2024/02/06 01:17:12;;;;;;;3.28;2.13;;;;;;;;;;5029782;28;20038;-64
2024/02/06 01:19:37;;;;;;;3.10;2.00;;;;;;;;;;5036786;28;20042;-64
2024/02/06 01:22:02;;;;;;;3.05;1.77;;;;;;;;;;5029123;28;20578;-65
2024/02/06 01:24:28;;;;;;;2.97;1.92;;;;;;;;;;5029900;28;20057;-64
2024/02/06 01:26:53;;;;;;;2.35;1.67;;;;;;;;;;5029422;28;20113;-64
2024/02/06 01:29:18;;;;;;;2.70;1.70;;;;;;;;;;5029153;28;20033;-63
2024/02/06 01:31:46;;;;;;;2.95;1.92;;;;;;;;;;5029277;28;20123;-64
2024/02/06 01:34:11;;;;;;;2.42;1.70;;;;;;;;;;5029912;28;20033;-63
2024/02/06 01:36:36;;;;;;;2.95;1.77;;;;;;;;;;5029779;28;20485;-63
2024/02/06 01:39:02;;;;;;;3.92;2.22;;;;;;;;;;5028408;28;20030;-64
2024/02/06 01:41:27;;;;;;;2.90;2.00;;;;;;;;;;5028794;28;20034;-64
2024/02/06 01:43:53;;;;;;;2.78;1.90;;;;;;;;;;5029427;28;20033;-64
2024/02/06 01:46:19;;;;;;;3.42;2.08;;;;;;;;;;5029449;28;20419;-64
2024/02/06 01:48:44;;;;;;;3.30;2.33;;;;;;;;;;5027892;28;20025;-63
2024/02/06 01:51:10;;;;;;;3.30;1.92;;;;;;;;;;5028807;28;20040;-65
2024/02/06 01:53:35;;;;;;;2.90;1.90;;;;;;;;;;5029243;28;20057;-65
2024/02/06 01:56:00;;;;;;;3.28;1.80;;;;;;;;;;5028538;28;20040;-64
2024/02/06 01:58:26;;;;;;;3.25;2.20;;;;;;;;;;5027817;28;20037;-65
2024/02/06 02:00:51;;;;;;;3.10;2.05;;;;;;;;;;5020623;28;20029;-64
2024/02/06 02:03:16;;;;;;;2.50;1.67;;;;;;;;;;5030780;28;20093;-64
2024/02/06 02:05:44;;;;;;;2.88;2.10;;;;;;;;;;5029174;28;20458;-63
2024/02/06 02:08:09;;;;;;;3.20;2.08;;;;;;;;;;5011993;28;20042;-64
2024/02/06 02:10:34;;;;;;;2.55;1.70;;;;;;;;;;5007606;28;20111;-63
2024/02/06 02:13:00;;;;;;;3.03;1.90;;;;;;;;;;5026744;28;20542;-63
2024/02/06 02:15:25;;;;;;;2.45;1.83;;;;;;;;;;5008179;28;20480;-64
2024/02/06 02:17:50;;;;;;;3.05;1.63;;;;;;;;;;5011998;28;20030;-62
2024/02/06 02:20:16;;;;;;;3.17;1.85;;;;;;;;;;5026828;28;20037;-64
2024/02/06 02:22:42;;;;;;;3.08;2.08;;;;;;;;;;5026521;28;20507;-60
2024/02/06 02:25:07;;;;;;;2.85;1.80;;;;;;;;;;5027159;28;20054;-65
2024/02/06 02:27:32;;;;;;;3.38;2.25;;;;;;;;;;5008711;28;20071;-63
2024/02/06 02:29:58;;;;;;;3.05;1.90;;;;;;;;;;5008334;28;20036;-64
2024/02/06 02:32:23;;;;;;;2.83;1.80;;;;;;;;;;5026656;28;20026;-64
2024/02/06 02:34:48;;;;;;;3.42;2.20;;;;;;;;;;5008862;28;20116;-64
2024/02/06 02:37:14;;;;;;;3.38;2.05;;;;;;;;;;5007667;28;20103;-64
2024/02/06 02:39:39;;;;;;;2.75;2.13;;;;;;;;;;5025768;28;20049;-64
2024/02/06 02:42:05;;;;;;;3.20;1.92;;;;;;;;;;5025107;28;20503;-63
2024/02/06 02:44:31;;;;;;;2.78;1.88;;;;;;;;;;5025518;28;20041;-65
2024/02/06 02:46:56;;;;;;;2.97;1.80;;;;;;;;;;5025085;28;20056;-65
2024/02/06 02:49:21;;;;;;;2.70;1.70;;;;;;;;;;5026666;28;20049;-64
2024/02/06 02:51:47;;;;;;;2.80;1.60;;;;;;;;;;5027310;28;20095;-64
2024/02/06 02:54:15;;;;;;;2.40;1.70;;;;;;;;;;5032349;28;20033;-64
2024/02/06 02:56:40;;;;;;;3.08;1.90;;;;;;;;;;5027066;28;20041;-64
2024/02/06 02:59:06;;;;;;;2.45;1.80;;;;;;;;;;5025217;28;20037;-65
2024/02/06 03:01:31;;;;;;;2.92;1.95;;;;;;;;;;5027838;28;20059;-64
2024/02/06 03:03:56;;;;;;;3.08;1.88;;;;;;;;;;5035697;28;20038;-64
2024/02/06 03:06:22;;;;;;;2.80;1.85;;;;;;;;;;5026531;28;20041;-64
2024/02/06 03:08:47;;;;;;;3.15;1.67;;;;;;;;;;5026060;28;20388;-64
2024/02/06 03:11:12;;;;;;;3.05;1.80;;;;;;;;;;5026513;28;20431;-64
2024/02/06 03:13:39;;;;;;;2.63;1.60;;;;;;;;;;5026011;28;20495;-64
2024/02/06 03:16:04;;;;;;;2.80;1.70;;;;;;;;;;5026233;28;20034;-65
2024/02/06 03:18:30;;;;;;;2.92;1.88;;;;;;;;;;5025979;28;20038;-64
2024/02/06 03:20:55;;;;;;;2.90;2.00;;;;;;;;;;5025703;28;20097;-64
2024/02/06 03:23:22;;;;;;;3.17;2.05;;;;;;;;;;5025896;28;20068;-64
2024/02/06 03:25:47;;;;;;;2.58;1.70;;;;;;;;;;5026275;28;20112;-63
2024/02/06 03:28:13;;;;;;;3.05;1.90;;;;;;;;;;5026658;28;20117;-64
2024/02/06 03:30:38;;;;;;;3.92;2.00;;;;;;;;;;5030092;28;20033;-64
2024/02/06 03:33:04;;;;;;;2.72;2.05;;;;;;;;;;5029638;28;20025;-64
2024/02/06 03:35:29;;;;;;;2.30;1.85;;;;;;;;;;5029935;28;20040;-64
2024/02/06 03:37:54;;;;;;;2.63;1.75;;;;;;;;;;5027073;28;20575;-60
2024/02/06 03:40:19;;;;;;;2.90;2.03;;;;;;;;;;5029883;28;20038;-64
2024/02/06 03:42:45;;;;;;;2.88;1.90;;;;;;;;;;5029180;28;20049;-64
2024/02/06 03:45:11;;;;;;;2.97;1.92;;;;;;;;;;5029806;28;20127;-64
2024/02/06 03:47:36;;;;;;;2.42;1.55;;;;;;;;;;5029811;28;20076;-64
2024/02/06 03:50:01;;;;;;;2.83;1.77;;;;;;;;;;5029514;28;20063;-64
2024/02/06 03:52:27;;;;;;;3.42;2.08;;;;;;;;;;5029428;28;20120;-63
2024/02/06 03:54:52;;;;;;;2.90;1.90;;;;;;;;;;5029241;28;20029;-64
2024/02/06 03:57:17;;;;;;;2.72;1.90;;;;;;;;;;5029570;28;20472;-64
2024/02/06 03:59:43;;;;;;;2.45;1.75;;;;;;;;;;5029835;28;20515;-63
2024/02/06 04:02:08;;;;;;;2.45;1.80;;;;;;;;;;5029273;28;20574;-65
2024/02/06 04:04:33;;;;;;;3.28;2.08;;;;;;;;;;5041834;28;20057;-61
2024/02/06 04:06:59;;;;;;;3.42;2.00;;;;;;;;;;5029363;28;20037;-64
2024/02/06 04:09:24;;;;;;;2.72;1.63;;;;;;;;;;5029230;28;20046;-64
2024/02/06 04:11:49;;;;;;;2.67;1.90;;;;;;;;;;5029785;28;20021;-65
2024/02/06 04:14:15;;;;;;;3.63;2.10;;;;;;;;;;5010384;28;20061;-63
2024/02/06 04:16:40;;;;;;;3.00;2.08;;;;;;;;;;5029072;28;20435;-64
2024/02/06 04:19:06;;;;;;;2.58;1.80;;;;;;;;;;5029270;28;20500;-65
2024/02/06 04:21:31;;;;;;;3.85;2.13;;;;;;;;;;5029289;28;20052;-65
2024/02/06 04:23:56;;;;;;;2.90;2.10;;;;;;;;;;5028171;28;20087;-65
2024/02/06 04:26:22;;;;;;;2.75;2.03;;;;;;;;;;5029328;28;20030;-63
2024/02/06 04:28:47;;;;;;;3.20;1.77;;;;;;;;;;5028635;28;20029;-64
2024/02/06 04:31:12;;;;;;;2.28;1.25;;;;;;;;;;5028099;28;20045;-64
2024/02/06 04:33:39;;;;;;;3.10;1.63;;;;;;;;;;5028302;28;20773;-64
2024/02/06 04:36:04;;;;;;;3.35;2.10;;;;;;;;;;5025854;28;20045;-60
2024/02/06 04:38:29;;;;;;;2.88;1.83;;;;;;;;;;5028523;28;20033;-63
2024/02/06 04:40:55;;;;;;;2.92;1.90;;;;;;;;;;5010404;28;20522;-63
2024/02/06 04:43:22;;;;;;;2.40;1.70;;;;;;;;;;5028072;28;20037;-63
2024/02/06 04:45:47;;;;;;;3.45;2.35;;;;;;;;;;5029259;28;20175;-62
2024/02/06 04:48:13;;;;;;;2.45;1.98;;;;;;;;;;5031031;28;20060;-63
2024/02/06 04:50:38;;;;;;;2.60;2.00;;;;;;;;;;5031873;28;20029;-64
2024/02/06 04:53:04;;;;;;;2.95;2.00;;;;;;;;;;5027964;28;20427;-63
2024/02/06 04:55:32;;;;;;;2.70;1.80;;;;;;;;;;5028487;28;20434;-63
2024/02/06 04:57:58;;;;;;;3.63;1.92;;;;;;;;;;5028233;28;20026;-61
2024/02/06 05:00:23;;;;;;;2.28;1.77;;;;;;;;;;5028071;28;20041;-64
2024/02/06 05:02:49;;;;;;;2.47;1.90;;;;;;;;;;5026829;28;20056;-63
2024/02/06 05:05:14;;;;;;;2.83;2.03;;;;;;;;;;5027851;28;20052;-63
2024/02/06 05:07:39;;;;;;;3.47;2.25;;;;;;;;;;5019422;28;20088;-62
2024/02/06 05:10:05;;;;;;;3.08;2.10;;;;;;;;;;5016583;28;20049;-64
2024/02/06 05:12:30;;;;;;;2.90;1.90;;;;;;;;;;5020928;28;20045;-62
2024/02/06 05:14:55;;;;;;;3.25;2.05;;;;;;;;;;5016180;28;20054;-65
2024/02/06 05:17:21;;;;;;;2.80;2.22;;;;;;;;;;4999133;28;20468;-63
2024/02/06 05:19:46;;;;;;;3.20;1.90;;;;;;;;;;5016823;28;20097;-65
2024/02/06 05:22:11;;;;;;;3.25;2.10;;;;;;;;;;5015566;28;20041;-65
2024/02/06 05:24:37;;;;;;;3.42;2.20;;;;;;;;;;5012819;28;20045;-63
2024/02/06 05:27:05;;;;;;;2.92;2.13;;;;;;;;;;5010327;28;20120;-65
2024/02/06 05:29:31;;;;;;;2.58;2.10;;;;;;;;;;5025342;28;20600;-64
2024/02/06 05:31:57;;;;;;;3.70;2.40;;;;;;;;;;5015976;28;20148;-65
2024/02/06 05:34:22;;;;;;;3.33;2.00;;;;;;;;;;5015285;28;20084;-65
2024/02/06 05:36:47;;;;;;;2.72;2.10;;;;;;;;;;5017227;28;20116;-63
2024/02/06 05:39:13;;;;;;;3.58;2.20;;;;;;;;;;5016148;28;20037;-63
2024/02/06 05:41:38;;;;;;;3.15;2.10;;;;;;;;;;5011509;28;20496;-62
2024/02/06 05:44:04;;;;;;;3.28;2.17;;;;;;;;;;5014334;28;20045;-65
2024/02/06 05:46:29;;;;;;;6.10;2.22;;;;;;;;;;5012839;28;20034;-65
2024/02/06 05:48:55;;;;;;;3.45;1.83;;;;;;;;;;5016623;28;20033;-66
2024/02/06 05:51:20;;;;;;;2.92;2.25;;;;;;;;;;5015949;28;20550;-67
2024/02/06 05:53:45;;;;;;;3.22;2.30;;;;;;;;;;5013872;28;20065;-66
2024/02/06 05:56:11;;;;;;;4.05;2.08;;;;;;;;;;5016078;28;20577;-65
2024/02/06 05:58:38;;;;;;;3.80;2.00;;;;;;;;;;5009599;28;20034;-64
2024/02/06 06:01:04;;;;;;;2.83;1.95;;;;;;;;;;5022872;28;20033;-64
2024/02/06 06:03:29;;;;;;;3.00;2.17;;;;;;;;;;5026359;28;20033;-65
2024/02/06 06:05:55;;;;;;;3.22;2.08;;;;;;;;;;5014739;28;20033;-64
2024/02/06 06:08:20;;;;;;;3.50;2.17;;;;;;;;;;5017539;28;20527;-65
2024/02/06 06:10:46;;;;;;;4.03;2.08;;;;;;;;;;5012316;28;20038;-63
2024/02/06 06:13:11;;;;;;;3.03;2.25;;;;;;;;;;5018194;28;20147;-68
2024/02/06 06:15:36;;;;;;;4.25;2.47;;;;;;;;;;5021803;28;20041;-62
2024/02/06 06:18:03;;;;;;;4.38;2.30;;;;;;;;;;5013757;28;20069;-67
2024/02/06 06:20:29;;;;;;;3.65;2.40;;;;;;;;;;5023155;28;20034;-69
2024/02/06 06:22:54;;;;;;;3.67;2.33;;;;;;;;;;5015304;28;20040;-61
2024/02/06 06:25:19;;;;;;;3.38;2.33;;;;;;;;;;5015967;28;20080;-64
2024/02/06 06:27:46;;;;;;;3.63;2.45;;;;;;;;;;5009789;28;20041;-65
2024/02/06 06:30:12;;;;;;;3.40;2.17;;;;;;;;;;5021150;28;20514;-64
2024/02/06 06:32:37;;;;;;;3.60;2.33;;;;;;;;;;5013436;28;20030;-64
2024/02/06 06:35:05;;;;;;;6.13;2.55;;;;;;;;;;5021536;28;20036;-68
2024/02/06 06:37:31;;;;;;;3.40;2.17;;;;;;;;;;5018021;28;20026;-67
2024/02/06 06:39:56;;;;;;;3.88;2.30;;;;;;;;;;5019579;28;20036;-68
2024/02/06 06:42:21;;;;;;;3.30;2.25;;;;;;;;;;5015052;28;20195;-69
2024/02/06 06:44:47;;;;;;;3.15;2.10;;;;;;;;;;5019117;28;20101;-66
2024/02/06 06:47:12;;;;;;;4.35;2.80;;;;;;;;;;5012276;28;20606;-67
2024/02/06 06:49:38;;;;;;;3.20;2.10;;;;;;;;;;5016901;28;20575;-67
2024/02/06 06:52:05;;;;;;;4.85;2.30;;;;;;;;;;5010301;28;20041;-65
2024/02/06 06:54:30;;;;;;;2.88;2.10;;;;;;;;;;5018585;28;20151;-67
2024/02/06 06:56:56;;;;;;;4.07;2.63;;;;;;;;;;5016478;28;20037;-66
2024/02/06 06:59:21;;;;;;;3.55;2.40;;;;;;;;;;5017121;28;20099;-67
2024/02/06 07:01:46;;;;;;;3.72;2.45;;;;;;;;;;5015746;28;20046;-67
2024/02/06 07:04:12;;;;;;;3.67;2.58;;;;;;;;;;5011938;28;20114;-68
2024/02/06 07:06:38;;;;;;;3.80;2.70;;;;;;;;;;5018537;28;20076;-68
2024/02/06 07:09:04;;;;;;;3.58;2.50;;;;;;;;;;5013989;28;20412;-68
2024/02/06 07:11:29;;;;;;;4.43;2.63;;;;;;;;;;5024635;28;20033;-66
2024/02/06 07:13:54;;;;;;;4.70;2.78;;;;;;;;;;5018591;28;20198;-65
2024/02/06 07:16:20;;;;;;;3.90;2.80;;;;;;;;;;5025882;28;20047;-68
2024/02/06 07:18:45;;;;;;;4.25;2.60;;;;;;;;;;5020830;28;20517;-61
2024/02/06 07:21:10;;;;;;;4.10;2.35;;;;;;;;;;5016629;28;20033;-69
2024/02/06 07:23:36;;;;;;;4.05;2.88;;;;;;;;;;5023374;28;20685;-66
2024/02/06 07:26:01;;;;;;;3.33;2.55;;;;;;;;;;5007912;28;20037;-66
2024/02/06 07:28:26;;;;;;;3.45;2.45;;;;;;;;;;5023784;28;20068;-65
2024/02/06 07:30:52;;;;;;;4.00;2.72;;;;;;;;;;5023005;28;20096;-65
2024/02/06 07:33:17;;;;;;;3.05;2.25;;;;;;;;;;5024197;28;20142;-73
2024/02/06 07:35:42;;;;;;;4.05;2.65;;;;;;;;;;5021224;28;20055;-66
2024/02/06 07:38:08;;;;;;;3.95;2.60;;;;;;;;;;5019315;28;20037;-67
2024/02/06 07:40:33;;;;;;;4.97;2.75;;;;;;;;;;5023707;28;20128;-66
2024/02/06 07:43:00;;;;;;;3.55;2.60;;;;;;;;;;5023927;28;20136;-67
2024/02/06 07:45:26;;;;;;;4.40;2.72;;;;;;;;;;5017735;28;20374;-64
2024/02/06 07:47:51;;;;;;;5.05;2.38;;;;;;;;;;5024113;28;20053;-64
2024/02/06 07:50:16;;;;;;;5.35;2.75;;;;;;;;;;5024202;28;20033;-65
2024/02/06 07:52:42;;;;;;;3.17;2.33;;;;;;;;;;5019824;28;20041;-67
2024/02/06 07:55:08;;;;;;;7.25;3.08;;;;;;;;;;5018737;28;20041;-61
2024/02/06 07:57:34;;;;;;;4.00;2.65;;;;;;;;;;5021476;28;20068;-65
2024/02/06 07:59:59;;;;;;;4.72;2.60;;;;;;;;;;5022783;28;20037;-67
2024/02/06 08:02:25;;;;;;;4.28;2.63;;;;;;;;;;5020340;28;20069;-70
2024/02/06 08:04:52;;;;;;;5.15;2.50;;;;;;;;;;5020219;28;20049;-70
2024/02/06 08:07:18;;;;;;;4.00;2.70;;;;;;;;;;5019451;28;20595;-70
2024/02/06 08:09:44;;;;;;;4.07;2.33;;;;;;;;;;5022373;28;20037;-70
2024/02/06 08:12:09;;;;;;;4.15;2.15;;;;;;;;;;5021488;28;20037;-70
2024/02/06 08:14:35;;;;;;;5.40;2.80;;;;;;;;;;5025792;28;20536;-69
2024/02/06 08:17:00;;;;;;;4.40;2.70;;;;;;;;;;5024300;28;20038;-66
2024/02/06 08:19:26;;;;;;;4.78;2.90;;;;;;;;;;5023321;28;20033;-66
2024/02/06 08:21:51;;;;;;;4.47;2.47;;;;;;;;;;5027984;28;20488;-65
2024/02/06 08:24:16;;;;;;;4.22;2.60;;;;;;;;;;5027205;28;20136;-66
2024/02/06 08:26:42;;;;;;;4.90;2.42;;;;;;;;;;5027482;28;20033;-67
2024/02/06 08:29:07;;;;;;;4.20;2.28;;;;;;;;;;5027475;28;20030;-66
2024/02/06 08:31:33;;;;;;;3.72;2.20;;;;;;;;;;5028813;28;20034;-67
2024/02/06 08:33:59;;;;;;;4.53;2.63;;;;;;;;;;5025623;28;20067;-67
2024/02/06 08:36:25;;;;;;;4.65;3.15;;;;;;;;;;5026171;28;20128;-65
2024/02/06 08:38:51;;;;;;;5.00;2.80;;;;;;;;;;5022738;28;20153;-66
2024/02/06 08:41:16;;;;;;;4.45;3.03;;;;;;;;;;5021293;28;20136;-67
2024/02/06 08:43:41;;;;;;;3.65;2.70;;;;;;;;;;5023829;28;20048;-69
2024/02/06 08:46:06;;;;;;;4.90;2.90;;;;;;;;;;5026178;28;20103;-67
2024/02/06 08:48:32;;;;;;;4.15;2.75;;;;;;;;;;5026802;28;20045;-66
2024/02/06 08:50:58;;;;;;;4.90;2.78;;;;;;;;;;5026349;28;20049;-66
2024/02/06 08:53:25;;;;;;;3.90;3.08;;;;;;;;;;5025966;28;20484;-66
2024/02/06 08:55:51;;;;;;;5.20;3.08;;;;;;;;;;5028138;28;20037;-65
2024/02/06 08:58:16;;;;;;;3.58;2.72;;;;;;;;;;5030436;28;20033;-64
2024/02/06 09:00:42;;;;;;;4.32;2.92;;;;;;;;;;5025036;28;20038;-67
2024/02/06 09:03:07;;;;;;;4.03;2.90;;;;;;;;;;5028256;28;20030;-68
2024/02/06 09:05:33;;;;;;;4.05;2.72;;;;;;;;;;5026438;28;20132;-67
2024/02/06 09:07:59;;;;;;;4.85;2.40;;;;;;;;;;5038700;28;20360;-68
2024/02/06 09:10:24;;;;;;;3.92;2.78;;;;;;;;;;4993464;28;20030;-69
2024/02/06 09:12:51;;;;;;;5.50;2.83;;;;;;;;;;5028321;28;20068;-65
2024/02/06 09:15:16;;;;;;;4.38;2.90;;;;;;;;;;5047465;28;20044;-67
2024/02/06 09:17:41;;;;;;;4.10;2.70;;;;;;;;;;5049140;28;20124;-67
2024/02/06 09:20:07;;;;;;;4.10;2.72;;;;;;;;;;5045740;28;20044;-68
2024/02/06 09:22:32;;;;;;;5.07;3.03;;;;;;;;;;5048071;28;20033;-66
2024/02/06 09:24:58;;;;;;;6.55;3.03;;;;;;;;;;5046180;28;20033;-68
2024/02/06 09:27:23;;;;;;;4.72;2.85;;;;;;;;;;5044665;28;20518;-67
2024/02/06 09:29:48;;;;;;;4.63;2.80;;;;;;;;;;5047832;28;20047;-68
2024/02/06 09:32:14;;;;;;;5.13;3.03;;;;;;;;;;5047188;28;20653;-64
2024/02/06 09:34:39;;;;;;;4.10;2.88;;;;;;;;;;5043178;28;20391;-62
2024/02/06 09:37:05;;;;;;;3.90;2.70;;;;;;;;;;5039620;28;20087;-64
2024/02/06 09:39:30;;;;;;;4.47;2.75;;;;;;;;;;5034424;28;20108;-67
2024/02/06 09:42:01;;;;;;;4.57;2.72;;;;;;;;;;5045175;28;20457;-65
2024/02/06 09:44:28;;;;;;;5.13;2.75;;;;;;;;;;5010865;28;20116;-67
2024/02/06 09:46:54;;;;;;;3.78;2.60;;;;;;;;;;5029194;28;20407;-62
2024/02/06 09:49:19;;;;;;;8.07;3.70;;;;;;;;;;5024726;28;20026;-64
2024/02/06 09:51:45;;;;;;;4.72;2.30;;;;;;;;;;5046517;28;20032;-61
2024/02/06 09:54:10;;;;;;;5.32;3.03;;;;;;;;;;5037267;28;20029;-63
2024/02/06 09:56:35;;;;;;;4.07;2.60;;;;;;;;;;5027452;28;20025;-64
2024/02/06 09:59:05;;;;;;;5.05;2.35;;;;;;;;;;5027074;28;20025;-65
2024/02/06 10:01:30;;;;;;;6.00;3.20;;;;;;;;;;5050469;28;20052;-65
2024/02/06 10:03:55;;;;;;;4.55;3.17;;;;;;;;;;5045025;28;20462;-61
2024/02/06 10:06:23;;;;;;;5.38;3.30;;;;;;;;;;5043885;28;20044;-61
2024/02/06 10:08:49;;;;;;;5.43;2.78;;;;;;;;;;5036177;28;20152;-61
2024/02/06 10:11:15;;;;;;;5.30;2.97;;;;;;;;;;5036864;28;20084;-63
2024/02/06 10:13:41;;;;;;;5.97;2.92;;;;;;;;;;5025120;28;20037;-61
2024/02/06 10:16:06;;;;;;;8.05;3.30;;;;;;;;;;5043282;28;20098;-61
2024/02/06 10:18:31;;;;;;;6.13;3.10;;;;;;;;;;5038542;28;20108;-65
2024/02/06 10:20:57;;;;;;;5.35;3.17;;;;;;;;;;5043966;28;20533;-65
2024/02/06 10:23:22;;;;;;;7.82;3.45;;;;;;;;;;5045083;28;20495;-63
2024/02/06 10:25:48;;;;;;;6.75;2.97;;;;;;;;;;5043897;28;20044;-61
2024/02/06 10:28:23;;;;;;;5.50;3.20;;;;;;;;;;5043688;28;20029;-61
2024/02/06 10:30:48;;;;;;;6.60;3.05;;;;;;;;;;5026124;28;20036;-65
2024/02/06 10:33:14;;;;;;;5.43;3.17;;;;;;;;;;5046814;28;20525;-67
2024/02/06 10:35:39;;;;;;;6.28;3.00;;;;;;;;;;5044179;28;20490;-66
2024/02/06 10:38:09;;;;;;;6.05;3.08;;;;;;;;;;5042979;28;20040;-67
2024/02/06 10:40:35;;;;;;;6.33;3.17;;;;;;;;;;5024892;28;20036;-65
2024/02/06 10:43:00;;;;;;;4.57;2.90;;;;;;;;;;5044446;28;20041;-63
2024/02/06 10:45:25;;;;;;;6.93;3.28;;;;;;;;;;5043302;28;20560;-63
2024/02/06 10:47:57;;;;;;;6.10;3.20;;;;;;;;;;5044117;28;20531;-62
2024/02/06 10:50:23;;;;;;;6.20;3.20;;;;;;;;;;5041100;28;20032;-61
2024/02/06 10:52:48;;;;;;;7.15;3.30;;;;;;;;;;5044204;28;20422;-61
2024/02/06 10:55:13;;;;;;;5.18;3.38;;;;;;;;;;5022816;28;20029;-63
2024/02/06 10:57:39;;;;;;;5.85;3.35;;;;;;;;;;5040634;28;20182;-68
2024/02/06 11:00:07;;;;;;;6.70;3.30;;;;;;;;;;5043586;28;20025;-67
2024/02/06 11:02:32;;;;;;;5.78;3.38;;;;;;;;;;5044048;28;20399;-62
2024/02/06 11:05:00;;;;;;;8.65;3.05;;;;;;;;;;5041587;28;20052;-63
2024/02/06 11:07:25;;;;;;;8.02;3.75;;;;;;;;;;5025573;28;20154;-62
2024/02/06 11:09:50;;;;;;;8.27;3.40;;;;;;;;;;5024914;28;20088;-63
2024/02/06 11:12:16;;;;;;;5.53;3.53;;;;;;;;;;5043199;28;20087;-67
2024/02/06 11:14:41;;;;;;;5.90;3.33;;;;;;;;;;5025985;28;20033;-64
2024/02/06 11:17:06;;;;;;;11.10;6.00;;;;;;;;;;5042101;28;20044;-65
2024/02/06 11:19:38;;;;;;;10.10;5.45;;;;;;;;;;5043473;28;20123;-64
2024/02/06 11:22:06;;;;;;;8.98;4.95;;;;;;;;;;5018195;28;20044;-64
2024/02/06 11:24:31;;;;;;;7.50;3.70;;;;;;;;;;5042614;28;20128;-65
2024/02/06 11:26:57;;;;;;;7.70;3.90;;;;;;;;;;5039750;28;20293;-65
2024/02/06 11:29:22;;;;;;;7.45;4.13;;;;;;;;;;5023879;28;20049;-65
2024/02/06 11:31:48;;;;;;;6.38;3.90;;;;;;;;;;5025438;28;20037;-64
2024/02/06 11:34:13;;;;;;;8.70;4.07;;;;;;;;;;5044478;28;20428;-68
2024/02/06 11:36:40;;;;;;;6.72;4.13;;;;;;;;;;5040709;28;20120;-69
2024/02/06 11:39:06;;;;;;;7.20;4.13;;;;;;;;;;5038603;28;20045;-62
2024/02/06 11:41:32;;;;;;;5.13;3.45;;;;;;;;;;5038977;28;20029;-62
2024/02/06 11:44:05;;;;;;;8.55;3.88;;;;;;;;;;5035033;28;20522;-66
2024/02/06 11:46:39;;;;;;;6.65;4.10;;;;;;;;;;5030686;28;20037;-65
2024/02/06 11:49:05;;;;;;;7.65;3.80;;;;;;;;;;5040126;28;20128;-65
2024/02/06 11:51:31;;;;;;;7.38;4.13;;;;;;;;;;5037996;28;20520;-63
2024/02/06 11:53:56;;;;;;;6.43;4.30;;;;;;;;;;5046319;28;20120;-64
2024/02/06 11:56:21;;;;;;;6.30;3.78;;;;;;;;;;5035318;28;20045;-63
2024/02/06 11:58:46;;;;;;;5.70;3.88;;;;;;;;;;5040572;28;20049;-65
2024/02/06 12:01:13;;;;;;;5.35;3.97;;;;;;;;;;5041101;28;20033;-63
2024/02/06 12:03:38;;;;;;;5.85;3.67;;;;;;;;;;5034207;28;20518;-65
2024/02/06 12:06:04;;;;;;;6.22;3.78;;;;;;;;;;5039663;28;20033;-67
2024/02/06 12:08:32;;;;;;;7.05;4.35;;;;;;;;;;5045368;28;20025;-65
2024/02/06 12:11:03;;;;;;;6.32;3.80;;;;;;;;;;5046155;28;20029;-62
2024/02/06 12:13:32;;;;;;;5.72;3.83;;;;;;;;;;5047977;28;20514;-64
2024/02/06 12:16:00;;;;;;;9.52;4.10;;;;;;;;;;5044047;28;20487;-60
2024/02/06 12:18:26;;;;;;;6.43;3.95;;;;;;;;;;5047598;28;20428;-60
2024/02/06 12:20:51;;;;;;;7.00;3.92;;;;;;;;;;5050350;28;20815;-64
2024/02/06 12:23:17;;;;;;;7.20;4.28;;;;;;;;;;5045830;28;20120;-61
2024/02/06 12:25:42;;;;;;;6.90;3.92;;;;;;;;;;5046367;28;20052;-59
2024/02/06 12:28:15;;;;;;;7.13;4.32;;;;;;;;;;5046284;28;20461;-61
2024/02/06 12:30:44;;;;;;;7.22;4.30;;;;;;;;;;5045778;28;20032;-60
2024/02/06 12:33:09;;;;;;;8.10;4.10;;;;;;;;;;5046480;28;20033;-60
2024/02/06 12:35:35;;;;;;;7.53;4.30;;;;;;;;;;5045110;28;20470;-60
2024/02/06 12:38:01;;;;;;;6.18;3.90;;;;;;;;;;5043902;28;20037;-63
2024/02/06 12:40:29;;;;;;;6.35;4.25;;;;;;;;;;5045982;28;20035;-65
2024/02/06 12:42:59;;;;;;;6.82;4.32;;;;;;;;;;5045786;28;20057;-64
2024/02/06 12:45:25;;;;;;;6.13;3.88;;;;;;;;;;5046787;28;20513;-63
2024/02/06 12:47:50;;;;;;;7.18;4.53;;;;;;;;;;5046641;28;20087;-65
2024/02/06 12:50:15;;;;;;;7.97;4.30;;;;;;;;;;5046837;28;20124;-65
2024/02/06 12:52:41;;;;;;;7.45;3.90;;;;;;;;;;5046101;28;20713;-63
2024/02/06 12:55:07;;;;;;;5.43;4.07;;;;;;;;;;5038714;28;20071;-63
2024/02/06 12:57:32;;;;;;;6.28;4.30;;;;;;;;;;5039838;28;20060;-65
2024/02/06 12:59:58;;;;;;;7.35;4.45;;;;;;;;;;5043921;28;20033;-69
2024/02/06 13:02:23;;;;;;;6.15;3.92;;;;;;;;;;5034842;28;20069;-68
2024/02/06 13:04:48;;;;;;;6.50;4.20;;;;;;;;;;5027727;28;20140;-67
2024/02/06 13:07:21;;;;;;;7.97;4.22;;;;;;;;;;5045643;28;20036;-66
2024/02/06 13:09:46;;;;;;;7.97;4.60;;;;;;;;;;5044771;28;20037;-65
2024/02/06 13:12:11;;;;;;;7.00;4.05;;;;;;;;;;5046313;28;20033;-67
2024/02/06 13:14:37;;;;;;;7.35;4.35;;;;;;;;;;5026791;28;20033;-65
2024/02/06 13:17:02;;;;;;;6.90;4.13;;;;;;;;;;5042613;28;20018;-69
2024/02/06 13:19:29;;;;;;;7.20;4.32;;;;;;;;;;5047788;28;20029;-69
2024/02/06 13:21:57;;;;;;;6.38;4.60;;;;;;;;;;5029558;28;20451;-65
2024/02/06 13:24:23;;;;;;;6.63;4.32;;;;;;;;;;5029761;28;20128;-68
2024/02/06 13:26:48;;;;;;;8.27;4.07;;;;;;;;;;5046422;28;21211;-68
2024/02/06 13:29:14;;;;;;;8.25;4.65;;;;;;;;;;5046955;28;20031;-68
2024/02/06 13:31:39;;;;;;;8.70;4.13;;;;;;;;;;5045859;28;20123;-68
2024/02/06 13:34:05;;;;;;;8.18;4.00;;;;;;;;;;5044330;28;20020;-67
2024/02/06 13:36:30;;;;;;;8.25;4.10;;;;;;;;;;5044992;28;20483;-65
2024/02/06 13:38:56;;;;;;;10.75;4.57;;;;;;;;;;5048073;28;20064;-65
2024/02/06 13:41:21;;;;;;;14.02;3.97;;;;;;;;;;5049600;28;20087;-67
2024/02/06 13:43:47;;;;;;;9.18;3.53;;;;;;;;;;5052160;28;20569;-66
2024/02/06 13:46:12;;;;;;;8.75;3.70;;;;;;;;;;5056755;28;20067;-71
2024/02/06 13:48:38;;;;;;;6.38;2.83;;;;;;;;;;5049011;28;20147;-68
2024/02/06 13:51:03;;;;;;;6.43;2.55;;;;;;;;;;5045221;28;20083;-69
2024/02/06 13:53:28;;;;;;;7.00;2.83;;;;;;;;;;5044091;28;20017;-72
2024/02/06 13:55:54;;;;;;;6.35;2.45;;;;;;;;;;5045987;28;20021;-70
2024/02/06 13:58:19;;;;;;;4.55;2.22;;;;;;;;;;5046787;28;20032;-72
2024/02/06 14:00:44;;;;;;;6.97;2.38;;;;;;;;;;5062698;28;20056;-70
2024/02/06 14:03:10;;;;;;;3.63;1.85;;;;;;;;;;5054621;28;20562;-70
2024/02/06 14:05:35;;;;;;;4.85;1.95;;;;;;;;;;5048710;28;20473;-66
2024/02/06 14:08:00;;;;;;;8.18;2.83;;;;;;;;;;5040625;28;20445;-73
2024/02/06 14:10:26;;;;;;;7.20;3.33;;;;;;;;;;5029235;28;20479;-73
2024/02/06 14:12:51;;;;;;;8.68;3.67;;;;;;;;;;5038772;28;20095;-61
2024/02/06 14:15:17;;;;;;;7.22;3.92;;;;;;;;;;5044634;28;20459;-65
2024/02/06 14:17:44;;;;;;;10.93;3.90;;;;;;;;;;5045926;28;20028;-66
2024/02/06 14:20:10;;;;;;;10.45;3.70;;;;;;;;;;5044010;28;20052;-71
2024/02/06 14:22:36;;;;;;;6.53;3.05;;;;;;;;;;5047653;28;20048;-69
2024/02/06 14:25:01;;;;;;;6.43;2.75;;;;;;;;;;5057840;28;20436;-70
2024/02/06 14:27:26;;;;;;;8.40;2.83;;;;;;;;;;5030701;28;20028;-73
2024/02/06 14:29:52;;;;;;;7.18;3.20;;;;;;;;;;5049439;28;20032;-74
2024/02/06 14:32:17;;;;;;;7.00;3.30;;;;;;;;;;5056051;28;20036;-71
2024/02/06 14:34:42;;;;;;;4.53;2.63;;;;;;;;;;5051739;28;20033;-71